createdAt,value
2023-05-05T00:01:08.790Z,4.53
2023-05-05T00:03:36.463Z,4.70
2023-05-05T00:06:05.433Z,4.57
2023-05-05T00:08:33.393Z,4.50
2023-05-05T00:11:02.054Z,4.97
2023-05-05T00:13:29.751Z,4.30
2023-05-05T00:15:57.456Z,4.45
2023-05-05T00:18:24.665Z,4.65
2023-05-05T00:20:52.330Z,4.18
2023-05-05T00:23:20.486Z,4.07
2023-05-05T00:25:47.751Z,4.28
2023-05-05T00:28:16.536Z,4.05
2023-05-05T00:30:44.045Z,4.30
2023-05-05T00:33:11.429Z,3.95
2023-05-05T00:35:38.697Z,3.93
2023-05-05T00:38:07.274Z,4.43
2023-05-05T00:40:34.653Z,4.90
2023-05-05T00:43:02.746Z,4.45
2023-05-05T00:45:31.883Z,5.05
2023-05-05T00:48:00.736Z,5.20
2023-05-05T00:50:29.607Z,5.05
2023-05-05T00:53:01.106Z,5.40
2023-05-05T00:55:28.793Z,5.22
2023-05-05T00:57:56.779Z,5.30
2023-05-05T01:00:24.221Z,5.87
2023-05-05T01:02:53.183Z,5.38
2023-05-05T01:05:22.967Z,6.10
2023-05-05T01:08:03.034Z,6.10
2023-05-05T01:10:36.560Z,6.25
2023-05-05T01:13:20.733Z,5.80
2023-05-05T01:15:55.153Z,6.55
2023-05-05T01:18:32.293Z,5.95
2023-05-05T01:21:07.122Z,5.75
2023-05-05T01:23:55.727Z,5.75
2023-05-05T01:26:51.365Z,5.53
2023-05-05T01:29:41.434Z,4.93
2023-05-05T01:32:12.996Z,4.88
2023-05-05T01:34:45.420Z,4.05
2023-05-05T01:37:18.421Z,4.35
2023-05-05T01:39:50.228Z,4.83
2023-05-05T01:42:18.790Z,4.30
2023-05-05T01:44:48.324Z,4.65
2023-05-05T01:47:19.592Z,4.70
2023-05-05T01:49:48.093Z,4.65
2023-05-05T01:52:16.318Z,4.30
2023-05-05T01:54:45.520Z,4.78
2023-05-05T01:57:14.711Z,4.43
2023-05-05T01:59:42.423Z,4.68
2023-05-05T02:02:11.324Z,4.50
2023-05-05T02:04:43.620Z,5.18
2023-05-05T02:07:12.696Z,4.75
2023-05-05T02:09:42.529Z,4.72
2023-05-05T02:12:10.713Z,5.00
2023-05-05T02:14:39.024Z,4.45
2023-05-05T02:17:06.283Z,4.60
2023-05-05T02:19:38.857Z,4.13
2023-05-05T02:22:08.131Z,4.28
2023-05-05T02:24:35.839Z,5.00
2023-05-05T02:27:06.320Z,4.32
2023-05-05T02:29:36.595Z,4.47
2023-05-05T02:32:09.693Z,4.75
2023-05-05T02:34:39.960Z,4.40
2023-05-05T02:37:12.784Z,4.13
2023-05-05T02:39:45.245Z,4.43
2023-05-05T02:42:18.434Z,4.23
2023-05-05T02:44:46.489Z,4.32
2023-05-05T02:47:13.877Z,4.50
2023-05-05T02:49:41.206Z,4.40
2023-05-05T02:52:09.969Z,4.30
2023-05-05T02:54:37.582Z,4.80
2023-05-05T02:57:04.843Z,4.50
2023-05-05T02:59:38.249Z,4.50
2023-05-05T03:02:16.958Z,4.43
2023-05-05T03:04:49.417Z,4.35
2023-05-05T03:07:25.962Z,3.87
2023-05-05T03:10:01.095Z,4.47
2023-05-05T03:12:37.663Z,4.82
2023-05-05T03:15:08.284Z,5.10
2023-05-05T03:17:36.944Z,5.10
2023-05-05T03:20:06.210Z,4.40
2023-05-05T03:22:37.393Z,5.18
2023-05-05T03:25:06.298Z,4.97
2023-05-05T03:27:33.578Z,5.30
2023-05-05T03:30:02.643Z,4.60
2023-05-05T03:32:30.996Z,4.57
2023-05-05T03:34:58.284Z,4.95
2023-05-05T03:37:25.460Z,4.45
2023-05-05T03:39:54.021Z,4.57
2023-05-05T03:42:21.266Z,4.38
2023-05-05T03:44:48.538Z,4.70
2023-05-05T03:47:15.708Z,4.90
2023-05-05T03:49:42.917Z,4.78
2023-05-05T03:52:10.260Z,4.80
2023-05-05T03:54:37.832Z,4.53
2023-05-05T03:57:06.526Z,4.80
2023-05-05T03:59:33.835Z,4.47
2023-05-05T04:02:01.557Z,4.80
2023-05-05T04:04:29.095Z,5.22
2023-05-05T04:06:56.408Z,5.57
2023-05-05T04:09:23.589Z,5.50
2023-05-05T04:11:51.234Z,5.10
2023-05-05T04:14:20.033Z,4.75
2023-05-05T04:16:47.222Z,5.60
2023-05-05T04:19:14.433Z,5.20
2023-05-05T04:21:41.786Z,5.50
2023-05-05T04:24:09.734Z,5.65
2023-05-05T04:26:37.339Z,6.47
2023-05-05T04:29:07.043Z,6.55
2023-05-05T04:31:35.681Z,6.95
2023-05-05T04:34:03.008Z,7.27
2023-05-05T04:36:30.167Z,8.38
2023-05-05T04:38:57.497Z,7.22
2023-05-05T04:41:24.743Z,7.90
2023-05-05T04:43:51.953Z,7.65
2023-05-05T04:46:19.230Z,7.73
2023-05-05T04:48:47.887Z,7.10
2023-05-05T04:51:15.235Z,6.28
2023-05-05T04:53:42.612Z,6.13
2023-05-05T04:56:09.831Z,5.70
2023-05-05T04:58:37.217Z,5.97
2023-05-05T05:01:05.062Z,7.57
2023-05-05T05:03:32.493Z,5.47
2023-05-05T05:06:01.189Z,5.85
2023-05-05T05:08:28.754Z,5.95
2023-05-05T05:10:56.234Z,6.03
2023-05-05T05:13:23.829Z,5.78
2023-05-05T05:15:51.396Z,5.75
2023-05-05T05:18:18.662Z,5.28
2023-05-05T05:20:46.554Z,5.50
2023-05-05T05:23:15.372Z,5.70
2023-05-05T05:25:43.204Z,5.85
2023-05-05T05:28:11.140Z,6.78
2023-05-05T05:30:38.691Z,7.47
2023-05-05T05:33:06.908Z,7.45
2023-05-05T05:35:34.242Z,7.83
2023-05-05T05:38:04.161Z,7.47
2023-05-05T05:40:34.631Z,7.85
2023-05-05T05:43:03.016Z,7.63
2023-05-05T05:45:32.184Z,7.10
2023-05-05T05:48:02.437Z,7.97
2023-05-05T05:50:36.576Z,8.23
2023-05-05T05:53:03.919Z,8.80
2023-05-05T05:55:32.167Z,8.93
2023-05-05T05:58:00.959Z,8.95
2023-05-05T06:00:30.454Z,9.23
2023-05-05T06:02:57.893Z,8.82
2023-05-05T06:05:25.447Z,9.13
2023-05-05T06:07:52.796Z,9.38
2023-05-05T06:10:27.826Z,7.80
2023-05-05T06:12:55.488Z,7.30
2023-05-05T06:15:25.713Z,7.80
2023-05-05T06:17:53.266Z,7.10
2023-05-05T06:20:20.597Z,7.68
2023-05-05T06:22:47.895Z,7.78
2023-05-05T06:25:15.793Z,7.33
2023-05-05T06:27:43.396Z,7.10
2023-05-05T06:30:11.644Z,7.68
2023-05-05T06:32:40.419Z,7.45
2023-05-05T06:35:14.044Z,8.68
2023-05-05T06:37:44.367Z,7.73
2023-05-05T06:40:12.510Z,7.78
2023-05-05T06:42:39.812Z,7.63
2023-05-05T06:45:10.161Z,7.85
2023-05-05T06:47:37.618Z,6.72
2023-05-05T06:50:09.099Z,7.30
2023-05-05T06:52:36.964Z,6.55
2023-05-05T06:55:04.826Z,6.80
2023-05-05T06:57:32.132Z,6.43
2023-05-05T07:00:00.060Z,6.88
2023-05-05T07:02:27.533Z,6.93
2023-05-05T07:04:55.713Z,6.13
2023-05-05T07:07:24.461Z,6.30
2023-05-05T07:09:51.857Z,6.07
2023-05-05T07:12:19.400Z,5.75
2023-05-05T07:14:46.861Z,5.47
2023-05-05T07:17:14.124Z,5.53
2023-05-05T07:19:41.416Z,5.65
2023-05-05T07:22:08.839Z,5.35
2023-05-05T07:24:37.547Z,5.50
2023-05-05T07:27:05.256Z,5.07
2023-05-05T07:29:32.545Z,5.88
2023-05-05T07:31:59.853Z,5.10
2023-05-05T07:34:32.899Z,5.68
2023-05-05T07:37:00.197Z,5.70
2023-05-05T07:39:42.332Z,5.23
2023-05-05T07:42:11.655Z,5.38
2023-05-05T07:44:43.856Z,5.80
2023-05-05T07:47:13.472Z,5.32
2023-05-05T07:49:42.872Z,5.68
2023-05-05T07:52:12.186Z,5.63
2023-05-05T07:54:46.075Z,5.65
2023-05-05T07:57:19.467Z,4.57
2023-05-05T07:59:48.959Z,5.35
2023-05-05T08:02:18.397Z,5.53
2023-05-05T08:04:47.821Z,5.17
2023-05-05T08:07:17.028Z,5.72
2023-05-05T08:09:48.194Z,4.45
2023-05-05T08:12:19.867Z,5.28
2023-05-05T08:14:52.236Z,4.93
2023-05-05T08:17:21.852Z,4.57
2023-05-05T08:19:53.927Z,4.63
2023-05-05T08:22:34.111Z,5.07
2023-05-05T08:25:07.954Z,4.80
2023-05-05T08:27:37.445Z,4.63
2023-05-05T08:30:08.536Z,4.13
2023-05-05T08:32:36.314Z,4.30
2023-05-05T08:35:12.683Z,4.10
2023-05-05T08:37:40.102Z,4.20
2023-05-05T08:40:14.074Z,4.10
2023-05-05T08:42:47.226Z,4.20
2023-05-05T08:45:14.911Z,3.85
2023-05-05T08:47:43.549Z,3.75
2023-05-05T08:50:11.897Z,3.80
2023-05-05T08:52:41.442Z,3.63
2023-05-05T08:55:15.621Z,3.50
2023-05-05T08:57:50.963Z,3.10
2023-05-05T09:00:19.870Z,2.67
2023-05-05T09:02:47.634Z,3.78
2023-05-05T09:05:16.404Z,3.30
2023-05-05T09:07:44.426Z,3.90
2023-05-05T09:10:13.464Z,3.08
2023-05-05T09:12:45.514Z,2.83
2023-05-05T09:15:14.865Z,3.20
2023-05-05T09:20:34.720Z,3.10
2023-05-05T09:23:09.432Z,3.17
2023-05-05T09:25:38.993Z,3.00
2023-05-05T09:28:10.805Z,3.40
2023-05-05T09:30:38.719Z,3.03
2023-05-05T09:33:06.547Z,3.23
2023-05-05T09:35:51.194Z,3.38
2023-05-05T09:38:19.452Z,3.50
2023-05-05T09:40:49.361Z,3.08
2023-05-05T09:43:17.089Z,3.17
2023-05-05T09:45:44.569Z,3.23
2023-05-05T09:48:25.716Z,3.40
2023-05-05T09:50:54.039Z,3.60
2023-05-05T09:53:21.847Z,3.85
2023-05-05T09:55:57.903Z,3.50
2023-05-05T09:58:26.973Z,3.03
2023-05-05T10:00:55.312Z,3.78
2023-05-05T10:03:25.151Z,3.50
2023-05-05T10:05:54.149Z,3.20
2023-05-05T10:08:23.473Z,3.40
2023-05-05T10:10:53.353Z,2.93
2023-05-05T10:13:24.180Z,2.80
2023-05-05T10:15:53.089Z,3.20
2023-05-05T10:18:22.196Z,3.55
2023-05-05T10:20:56.014Z,3.55
2023-05-05T10:23:25.133Z,3.57
2023-05-05T10:25:59.258Z,3.08
2023-05-05T10:28:33.023Z,3.00
2023-05-05T10:31:04.237Z,3.70
2023-05-05T10:33:47.969Z,5.03
2023-05-05T10:36:16.415Z,2.87
2023-05-05T10:38:45.644Z,3.08
2023-05-05T10:41:14.300Z,3.25
2023-05-05T10:43:43.564Z,3.72
2023-05-05T10:46:11.204Z,3.75
2023-05-05T10:48:47.173Z,3.60
2023-05-05T10:51:39.436Z,2.97
2023-05-05T10:54:13.903Z,3.47
2023-05-05T10:56:43.267Z,3.70
2023-05-05T10:59:42.683Z,3.50
2023-05-05T11:02:24.315Z,3.10
2023-05-05T11:05:15.306Z,3.50
2023-05-05T11:07:43.264Z,3.92
2023-05-05T11:10:12.176Z,3.65
2023-05-05T11:13:20.004Z,3.63
2023-05-05T11:15:49.733Z,3.90
2023-05-05T11:18:36.870Z,3.50
2023-05-05T11:21:22.489Z,3.83
2023-05-05T11:23:51.370Z,3.25
2023-05-05T11:26:40.430Z,3.85
2023-05-05T11:29:10.536Z,3.73
2023-05-05T11:31:39.371Z,3.50
2023-05-05T11:34:29.298Z,4.30
2023-05-05T11:37:03.325Z,3.97
2023-05-05T11:39:42.939Z,3.03
2023-05-05T11:42:30.287Z,3.70
2023-05-05T11:45:01.509Z,3.70
2023-05-05T11:47:33.355Z,3.58
2023-05-05T11:50:17.455Z,4.15
2023-05-05T11:52:44.974Z,3.83
2023-05-05T11:55:12.338Z,4.00
2023-05-05T11:57:40.040Z,3.80
2023-05-05T12:00:09.201Z,4.68
2023-05-05T12:02:42.290Z,3.33
2023-05-05T12:05:09.862Z,3.95
2023-05-05T12:07:37.233Z,4.10
2023-05-05T12:10:07.047Z,4.13
2023-05-05T12:12:38.534Z,3.15
2023-05-05T12:15:07.130Z,3.35
2023-05-05T12:17:45.111Z,3.63
2023-05-05T12:20:13.478Z,3.47
2023-05-05T12:22:41.037Z,3.20
2023-05-05T12:25:09.272Z,3.75
2023-05-05T12:27:36.648Z,3.78
2023-05-05T12:30:15.759Z,3.78
2023-05-05T12:32:45.683Z,3.60
2023-05-05T12:35:16.114Z,4.05
2023-05-05T12:37:43.883Z,4.00
2023-05-05T12:40:47.539Z,3.78
2023-05-05T12:43:26.586Z,3.63
2023-05-05T12:46:05.768Z,3.67
2023-05-05T12:48:36.050Z,4.13
2023-05-05T12:51:20.159Z,4.50
2023-05-05T12:53:48.942Z,4.43
2023-05-05T12:56:38.776Z,4.50
2023-05-05T12:59:08.150Z,4.47
2023-05-05T13:01:36.638Z,3.80
2023-05-05T13:04:07.260Z,3.40
2023-05-05T13:06:36.203Z,3.25
2023-05-05T13:09:04.120Z,3.10
2023-05-05T13:11:36.405Z,3.43
2023-05-05T13:14:03.850Z,3.05
2023-05-05T13:16:31.355Z,2.83
2023-05-05T13:18:58.983Z,3.35
2023-05-05T13:21:28.193Z,4.05
2023-05-05T13:24:04.887Z,3.30
2023-05-05T13:26:39.664Z,2.95
2023-05-05T13:29:06.931Z,3.47
2023-05-05T13:31:34.862Z,3.25
2023-05-05T13:34:02.291Z,3.20
2023-05-05T13:36:33.316Z,2.87
2023-05-05T13:39:00.869Z,2.88
2023-05-05T13:41:28.397Z,3.42
2023-05-05T13:43:56.596Z,2.75
2023-05-05T13:46:23.895Z,3.40
2023-05-05T13:48:56.074Z,3.60
2023-05-05T13:51:24.408Z,3.58
2023-05-05T13:53:53.224Z,2.85
2023-05-05T13:56:20.585Z,2.92
2023-05-05T13:58:47.767Z,3.20
2023-05-05T14:01:15.423Z,2.80
2023-05-05T14:03:42.744Z,3.63
2023-05-05T14:06:09.975Z,3.45
2023-05-05T14:08:37.384Z,3.65
2023-05-05T14:11:06.115Z,3.00
2023-05-05T14:13:33.387Z,2.90
2023-05-05T14:16:00.647Z,3.03
2023-05-05T14:18:28.517Z,2.88
2023-05-05T14:20:56.316Z,2.83
2023-05-05T14:23:24.040Z,2.97
2023-05-05T14:25:51.292Z,3.40
2023-05-05T14:28:20.008Z,2.83
2023-05-05T14:30:47.274Z,2.80
2023-05-05T14:33:14.545Z,3.75
2023-05-05T14:35:41.763Z,3.70
2023-05-05T14:38:09.075Z,3.20
2023-05-05T14:40:36.424Z,3.35
2023-05-05T14:43:03.634Z,3.10
2023-05-05T14:45:32.702Z,3.50
2023-05-05T14:48:00.229Z,2.92
2023-05-05T14:50:27.501Z,2.70
2023-05-05T14:52:54.920Z,2.97
2023-05-05T14:55:22.510Z,2.83
2023-05-05T14:57:49.974Z,2.90
2023-05-05T15:00:17.750Z,2.20
2023-05-05T15:02:48.319Z,2.60
2023-05-05T15:05:15.847Z,2.92
2023-05-05T15:07:43.279Z,2.85
2023-05-05T15:10:11.253Z,2.85
2023-05-05T15:12:39.018Z,2.72
2023-05-05T15:15:08.868Z,2.40
2023-05-05T15:17:37.678Z,2.72
2023-05-05T15:20:07.786Z,2.85
2023-05-05T15:22:35.167Z,3.30
2023-05-05T15:25:02.428Z,2.72
2023-05-05T15:27:30.791Z,2.83
2023-05-05T15:29:58.152Z,3.17
2023-05-05T15:32:25.557Z,2.90
2023-05-05T15:34:52.748Z,3.10
2023-05-05T15:37:21.374Z,3.53
2023-05-05T15:39:48.602Z,3.70
2023-05-05T15:42:15.761Z,2.92
2023-05-05T15:44:42.941Z,3.17
2023-05-05T15:47:11.049Z,3.20
2023-05-05T15:49:38.346Z,3.00
2023-05-05T15:52:05.941Z,3.30
2023-05-05T15:54:34.532Z,3.38
2023-05-05T15:57:03.207Z,2.80
2023-05-05T15:59:30.537Z,3.30
2023-05-05T16:01:58.187Z,3.22
2023-05-05T16:04:25.619Z,3.37
2023-05-05T16:06:53.168Z,3.30
2023-05-05T16:09:20.372Z,3.40
2023-05-05T16:11:49.271Z,2.78
2023-05-05T16:14:16.710Z,2.72
2023-05-05T16:16:44.056Z,3.10
2023-05-05T16:19:11.472Z,3.42
2023-05-05T16:21:38.947Z,3.40
2023-05-05T16:24:06.979Z,3.42
2023-05-05T16:26:35.951Z,3.45
2023-05-05T16:29:04.788Z,3.37
2023-05-05T16:31:34.088Z,3.15
2023-05-05T16:34:01.417Z,3.50
2023-05-05T16:36:28.675Z,3.50
2023-05-05T16:38:56.562Z,3.17
2023-05-05T16:41:24.306Z,2.97
2023-05-05T16:43:51.591Z,3.40
2023-05-05T16:46:20.257Z,3.30
2023-05-05T16:48:47.857Z,3.40
2023-05-05T16:51:15.212Z,3.53
2023-05-05T16:53:42.501Z,3.20
2023-05-05T16:56:11.720Z,3.30
2023-05-05T16:58:39.598Z,3.15
2023-05-05T17:01:06.909Z,3.45
2023-05-05T17:03:36.032Z,3.35
2023-05-05T17:06:03.497Z,5.20
2023-05-05T17:08:30.827Z,4.63
2023-05-05T17:10:58.283Z,4.68
2023-05-05T17:13:25.715Z,3.42
2023-05-05T17:15:53.004Z,3.38
2023-05-05T17:18:23.041Z,3.57
2023-05-05T17:20:52.106Z,4.40
2023-05-05T17:23:21.339Z,3.92
2023-05-05T17:25:48.546Z,3.97
2023-05-05T17:28:17.298Z,3.50
2023-05-05T17:30:44.709Z,3.60
2023-05-05T17:33:11.976Z,3.88
2023-05-05T17:35:39.316Z,3.03
2023-05-05T17:38:07.974Z,3.50
2023-05-05T17:40:35.308Z,3.53
2023-05-05T17:43:02.525Z,3.43
2023-05-05T17:45:29.861Z,4.10
2023-05-05T17:47:57.283Z,4.13
2023-05-05T17:50:24.603Z,4.85
2023-05-05T17:52:53.553Z,6.05
2023-05-05T17:55:22.405Z,6.37
2023-05-05T17:57:49.811Z,7.18
2023-05-05T18:00:18.415Z,7.55
2023-05-05T18:02:46.078Z,6.30
2023-05-05T18:05:14.452Z,5.70
2023-05-05T18:07:41.762Z,5.50
2023-05-05T18:10:10.775Z,5.45
2023-05-05T18:12:39.498Z,5.25
2023-05-05T18:15:08.848Z,6.80
2023-05-05T18:17:36.671Z,6.93
2023-05-05T18:20:06.832Z,8.73
2023-05-05T18:22:34.406Z,8.02
2023-05-05T18:25:01.634Z,7.25
2023-05-05T18:27:29.387Z,6.38
2023-05-05T18:29:58.127Z,6.53
2023-05-05T18:32:25.445Z,5.93
2023-05-05T18:34:52.707Z,5.40
2023-05-05T18:37:19.949Z,4.88
2023-05-05T18:39:47.225Z,4.93
2023-05-05T18:42:14.528Z,4.63
2023-05-05T18:44:42.036Z,4.30
2023-05-05T18:47:10.799Z,4.55
2023-05-05T18:49:38.174Z,4.05
2023-05-05T18:52:05.604Z,3.88
2023-05-05T18:54:32.908Z,4.25
2023-05-05T18:57:00.130Z,4.17
2023-05-05T18:59:27.449Z,3.90
2023-05-05T19:01:55.000Z,4.05
2023-05-05T19:04:30.831Z,6.10
2023-05-05T19:06:58.844Z,6.10
2023-05-05T19:09:26.189Z,6.70
2023-05-05T19:11:53.609Z,7.60
2023-05-05T19:14:22.523Z,6.82
2023-05-05T19:16:50.032Z,6.15
2023-05-05T19:19:17.284Z,6.30
2023-05-05T19:21:45.966Z,5.90
2023-05-05T19:24:14.060Z,5.30
2023-05-05T19:26:41.475Z,5.22
2023-05-05T19:29:08.759Z,5.30
2023-05-05T19:31:36.511Z,4.85
2023-05-05T19:34:04.878Z,5.00
2023-05-05T19:36:33.591Z,5.57
2023-05-05T19:39:03.538Z,6.68
2023-05-05T19:41:31.237Z,5.85
2023-05-05T19:43:58.610Z,5.13
2023-05-05T19:46:26.968Z,5.10
2023-05-05T19:48:54.336Z,5.13
2023-05-05T19:51:21.881Z,4.82
2023-05-05T19:53:49.204Z,7.90
2023-05-05T19:56:17.897Z,9.45
2023-05-05T19:58:56.103Z,6.90
2023-05-05T20:01:24.101Z,6.85
2023-05-05T20:03:54.460Z,6.25
2023-05-05T20:06:22.034Z,7.55
2023-05-05T20:08:49.242Z,7.10
2023-05-05T20:11:18.353Z,9.47
2023-05-05T20:13:45.616Z,8.80
2023-05-05T20:16:12.868Z,10.38
2023-05-05T20:18:40.393Z,10.15
2023-05-05T20:21:07.750Z,8.43
2023-05-05T20:23:35.196Z,6.27
2023-05-05T20:26:02.628Z,5.85
2023-05-05T20:28:31.953Z,6.82
2023-05-05T20:31:00.784Z,7.13
2023-05-05T20:33:28.521Z,6.78
2023-05-05T20:35:55.817Z,5.60
2023-05-05T20:38:23.615Z,6.13
2023-05-05T20:40:52.282Z,5.00
2023-05-05T20:43:19.616Z,5.47
2023-05-05T20:45:48.341Z,5.30
2023-05-05T20:48:15.849Z,4.87
2023-05-05T20:50:43.530Z,4.32
2023-05-05T20:53:13.888Z,4.78
2023-05-05T20:55:41.286Z,3.90
2023-05-05T20:58:09.320Z,4.10
2023-05-05T21:00:36.737Z,4.57
2023-05-05T21:03:06.165Z,4.22
2023-05-05T21:05:33.639Z,4.47
2023-05-05T21:08:01.330Z,4.20
2023-05-05T21:10:29.149Z,4.88
2023-05-05T21:12:56.610Z,4.60
2023-05-05T21:15:24.048Z,4.95
2023-05-05T21:17:51.892Z,5.00
2023-05-05T21:20:21.046Z,6.03
2023-05-05T21:22:48.370Z,5.97
2023-05-05T21:25:17.320Z,5.37
2023-05-05T21:27:45.125Z,5.25
2023-05-05T21:30:13.100Z,5.00
2023-05-05T21:32:40.712Z,4.88
2023-05-05T21:35:09.278Z,4.65
2023-05-05T21:37:39.629Z,4.83
2023-05-05T21:40:11.342Z,5.18
2023-05-05T21:42:38.824Z,4.50
2023-05-05T21:45:06.953Z,4.85
2023-05-05T21:47:34.577Z,4.05
2023-05-05T21:50:02.121Z,4.50
2023-05-05T21:52:29.401Z,4.47
2023-05-05T21:54:58.104Z,4.18
2023-05-05T21:57:25.564Z,3.92
2023-05-05T21:59:52.792Z,4.60
2023-05-05T22:02:20.218Z,4.27
2023-05-05T22:04:50.640Z,4.82
2023-05-05T22:07:17.825Z,5.60
2023-05-05T22:09:46.086Z,5.90
2023-05-05T22:12:14.759Z,6.60
2023-05-05T22:14:42.032Z,6.67
2023-05-05T22:17:09.276Z,6.10
2023-05-05T22:19:36.505Z,5.63
2023-05-05T22:22:03.814Z,6.05
2023-05-05T22:24:31.273Z,5.13
2023-05-05T22:26:58.625Z,4.80
2023-05-05T22:29:27.573Z,4.80
2023-05-05T22:31:54.981Z,4.72
2023-05-05T22:34:22.328Z,5.25
2023-05-05T22:36:49.993Z,6.05
2023-05-05T22:39:18.734Z,7.17
2023-05-05T22:41:46.658Z,6.50
2023-05-05T22:44:14.000Z,6.55
2023-05-05T22:46:42.777Z,6.28
2023-05-05T22:49:10.396Z,6.55
2023-05-05T22:51:37.668Z,5.93
2023-05-05T22:54:05.146Z,5.88
2023-05-05T22:56:33.473Z,5.47
2023-05-05T22:59:00.807Z,5.03
2023-05-05T23:01:28.319Z,5.80
2023-05-05T23:03:57.139Z,5.30
2023-05-05T23:06:25.278Z,5.80
2023-05-05T23:08:52.889Z,5.30
2023-05-05T23:11:20.228Z,5.47
2023-05-05T23:13:47.593Z,5.10
2023-05-05T23:16:14.873Z,5.60
2023-05-05T23:18:42.201Z,5.38
2023-05-05T23:21:10.967Z,5.13
2023-05-05T23:23:38.220Z,5.63
2023-05-05T23:26:05.575Z,5.53
2023-05-05T23:28:33.350Z,5.30
2023-05-05T23:31:01.220Z,4.93
2023-05-05T23:33:28.658Z,5.20
2023-05-05T23:35:56.081Z,4.88
2023-05-05T23:38:24.804Z,5.45
2023-05-05T23:40:52.223Z,5.40
2023-05-05T23:43:19.422Z,5.43
2023-05-05T23:45:46.675Z,4.65
2023-05-05T23:48:14.142Z,5.45
2023-05-05T23:50:41.423Z,5.18
2023-05-05T23:53:09.169Z,5.33
2023-05-05T23:55:37.980Z,5.28
2023-05-05T23:58:05.336Z,5.07
